Data for 11/17/2009

Time Sea-Level Adjusted Pressure Absolute Pressure Temperature Relative Humidity Dew Point   
(mb) (inHg) (mb) (inHg) (C) (F) (%) (C) (F)
00:05 1020 30.12 849 25.07 -0.2 31.7 71 -4.8 23.4
00:10 1020 30.12 849 25.07 0.1 32.2 62 -6.4 20.5
00:15 1020 30.12 849 25.07 1.1 33.9 58 -6.3 20.6
00:20 1020 30.12 849 25.07 1.1 34 57 -6.4 20.5
00:25 1020 30.12 849 25.07 0.4 32.7 63 -5.8 21.6
00:30 1019 30.09 849 25.07 0.1 32.1 62 -6.4 20.4
00:35 1019 30.09 849 25.07 0.4 32.7 61 -6.3 20.6
00:40 1019 30.09 849 25.07 0 32.1 63 -6.1 21
00:45 1019 30.09 849 25.07 -0.3 31.4 65 -6.1 21.1
00:50 1019 30.09 849 25.07 -0.5 31.1 68 -5.7 21.8
00:55 1019 30.09 849 25.07 -0.6 31 66 -6.2 20.9
01:00 1019 30.09 849 25.07 -0.4 31.3 63 -6.5 20.3
01:05 1019 30.09 849 25.07 -0.3 31.5 63 -6.4 20.4
01:10 1019 30.09 849 25.07 -0 31.9 61 -6.6 20
01:15 1020 30.12 849 25.07 -0.1 31.9 63 -6.4 20.5
01:20 1019 30.09 849 25.07 0 32.1 64 -6 21.3
01:25 1020 30.12 849 25.07 -0.1 31.8 62 -6.5 20.3
01:30 1019 30.09 849 25.07 0 32 62 -6.4 20.5
01:35 1019 30.09 849 25.07 -0.4 31.2 64 -6.5 20.4
01:40 1020 30.12 849 25.07 -0.7 30.7 67 -6.1 21
01:45 1020 30.12 849 25.07 -0.9 30.4 66 -6.5 20.3
01:50 1019 30.09 849 25.07 -0.7 30.7 63 -7 19.3
01:55 1019 30.09 849 25.07 -0.6 31 61 -7.2 19.1
02:00 1019 30.09 849 25.07 -0.3 31.4 61 -6.8 19.7
02:05 1019 30.09 848 25.04 -0.6 30.9 63 -6.8 19.7
02:10 1019 30.09 848 25.04 -0.5 31.1 61 -7.1 19.2
02:15 1019 30.09 848 25.04 -0 32 61 -6.6 20.1
02:20 1019 30.09 848 25.04 -0.3 31.5 61 -6.9 19.6
02:25 1019 30.09 848 25.04 -0.6 31 62 -7 19.5
02:30 1019 30.09 848 25.04 -0.4 31.2 62 -6.9 19.5
02:35 1019 30.09 848 25.04 -0.4 31.3 62 -6.9 19.6
02:40 1019 30.09 848 25.04 -0.4 31.3 61 -7.1 19.2
02:45 1019 30.09 848 25.04 -0.6 31 63 -6.7 20
02:50 1019 30.09 848 25.04 -0.7 30.7 62 -7 19.4
02:55 1019 30.09 848 25.04 -0.6 30.9 62 -7.1 19.3
03:00 1019 30.09 848 25.04 -0.7 30.8 62 -7.1 19.3
03:05 1019 30.09 848 25.04 -0.7 30.7 62 -7.1 19.2
03:10 1019 30.09 848 25.04 -0.2 31.7 58 -7.4 18.8
03:15 1019 30.09 848 25.04 0.1 32.1 58 -7.3 18.8
03:20 1019 30.09 848 25.04 0.4 32.7 57 -7.1 19.1
03:25 1019 30.09 848 25.04 0.3 32.6 57 -7.3 18.8
03:30 1019 30.09 848 25.04 0.3 32.5 58 -6.9 19.5
03:35 1019 30.09 848 25.04 -0.1 31.8 59 -7.1 19.3
03:40 1019 30.09 848 25.04 -0.4 31.3 60 -7.3 18.8
03:45 1019 30.09 848 25.04 -0.2 31.7 59 -7.3 18.9
03:50 1018 30.06 848 25.04 0.2 32.4 56 -7.5 18.5
03:55 1018 30.06 848 25.04 0.4 32.7 57 -7.2 19
04:00 1018 30.06 848 25.04 0.1 32.2 58 -7.1 19.2
04:05 1018 30.06 848 25.04 -0.1 31.8 60 -7 19.4
04:10 1018 30.06 848 25.04 -0.1 31.9 59 -7.1 19.3
04:15 1018 30.06 848 25.04 -0.3 31.5 58 -7.5 18.5
04:20 1018 30.06 847 25.01 0.3 32.6 57 -7.1 19.1
04:25 1018 30.06 847 25.01 0.3 32.6 56 -7.4 18.7
04:30 1018 30.06 847 25.01 0.1 32.2 59 -7 19.4
04:35 1018 30.06 847 25.01 0 32.1 56 -7.7 18.2
04:40 1018 30.06 847 25.01 0.5 33 56 -7.3 18.9
04:45 1018 30.06 847 25.01 0.5 32.9 55 -7.4 18.6
04:50 1018 30.06 847 25.01 0.9 33.6 55 -7.2 19
04:55 1018 30.06 847 25.01 0.5 32.9 57 -7.1 19.2
05:00 1018 30.06 847 25.01 0.2 32.3 56 -7.6 18.2
05:05 1018 30.06 847 25.01 0.6 33 55 -7.5 18.5
05:10 1018 30.06 847 25.01 0.6 33 53 -7.9 17.9
05:15 1018 30.06 847 25.01 1.1 33.9 55 -6.9 19.6
05:20 1018 30.06 847 25.01 0.7 33.3 52 -7.9 17.8
05:25 1018 30.06 847 25.01 1 33.8 54 -7.3 18.9
05:30 1018 30.06 847 25.01 1.1 33.9 51 -7.9 17.9
05:35 1018 30.06 847 25.01 1 33.9 54 -7.3 18.8
05:40 1018 30.06 847 25.01 1.1 34 50 -8.2 17.3
05:45 1018 30.06 847 25.01 2.4 36.2 47 -7.8 17.9
05:50 1018 30.06 847 25.01 2.6 36.6 48 -7.3 18.8
05:55 1018 30.06 847 25.01 2 35.7 49 -7.6 18.3
06:00 1018 30.06 847 25.01 1.7 35.1 50 -7.6 18.3
06:05 1018 30.06 847 25.01 1.7 35 51 -7.3 18.9
06:10 1018 30.06 847 25.01 1.7 35.1 50 -7.7 18.2
06:15 1017 30.03 847 25.01 2.1 35.7 49 -7.6 18.3
06:20 1017 30.03 847 25.01 2 35.5 52 -7 19.5
06:25 1017 30.03 847 25.01 1.4 34.6 52 -7.3 18.9
06:30 1017 30.03 847 25.01 1.4 34.6 52 -7.5 18.5
06:35 1017 30.03 847 25.01 1.5 34.6 53 -7.2 19
06:40 1017 30.03 846 24.98 1.8 35.3 50 -7.5 18.5
06:45 1017 30.03 846 24.98 1.9 35.5 53 -6.6 20.1
06:50 1017 30.03 846 24.98 1.6 34.8 51 -7.6 18.3
06:55 1017 30.03 847 25.01 1.8 35.3 53 -6.7 20
07:00 1017 30.03 847 25.01 2 35.6 50 -7.3 18.9
07:05 1017 30.03 847 25.01 2.6 36.7 48 -7.3 18.9
07:10 1017 30.03 846 24.98 3 37.4 48 -6.9 19.7
07:15 1017 30.03 846 24.98 2.6 36.7 49 -7.1 19.3
07:20 1017 30.03 846 24.98 2.5 36.5 50 -7 19.4
07:25 1017 30.03 846 24.98 2.5 36.5 50 -7 19.4
07:30 1017 30.03 846 24.98 2.6 36.6 48 -7.5 18.5
07:35 1017 30.03 846 24.98 2.9 37.1 48 -7.2 19
07:40 1017 30.03 846 24.98 3 37.3 47 -7.4 18.7
07:45 1017 30.03 846 24.98 3.5 38.2 46 -7.2 19
07:50 1017 30.03 846 24.98 3.4 38 47 -7 19.3
07:55 1017 30.03 846 24.98 3.3 38 46 -7.1 19.3
08:00 1017 30.03 846 24.98 3.5 38.3 47 -6.9 19.7
08:05 1017 30.03 846 24.98 3.4 38.1 49 -6.2 20.8
08:10 1017 30.03 846 24.98 2.9 37.2 48 -6.9 19.5
08:15 1017 30.03 846 24.98 3 37.4 48 -6.9 19.5
08:20 1017 30.03 846 24.98 3.4 38.1 47 -7 19.4
08:25 1017 30.03 846 24.98 3.5 38.3 47 -6.6 20.1
08:30 1017 30.03 846 24.98 3.5 38.3 46 -7.1 19.2
08:35 1017 30.03 846 24.98 3.4 38.1 47 -6.8 19.8
08:40 1017 30.03 846 24.98 3.4 38 48 -6.5 20.3
08:45 1016 30 846 24.98 3.5 38.4 43 -7.8 17.9
08:50 1016 30 846 24.98 4.3 39.8 43 -7.3 18.9
08:55 1016 30 846 24.98 4.8 40.6 42 -7.2 19.1
09:00 1016 30 846 24.98 4.7 40.5 44 -6.6 20.2
09:05 1016 30 846 24.98 4.4 39.9 47 -6 21.3
09:10 1017 30.03 846 24.98 4.3 39.7 49 -5.5 22.1
09:15 1017 30.03 846 24.98 4 39.2 48 -6.1 21.1
09:20 1017 30.03 846 24.98 3.6 38.4 53 -5 23
09:25 1017 30.03 846 24.98 2.2 35.9 56 -5.7 21.7
09:30 1016 30 846 24.98 2.2 36 54 -6.1 20.9
09:35 1016 30 846 24.98 2.6 36.8 54 -5.7 21.8
09:40 1016 30 846 24.98 3 37.5 50 -6.3 20.7
09:45 1016 30 846 24.98 3.7 38.6 48 -6.5 20.4
09:50 1016 30 846 24.98 4.1 39.4 47 -6.1 20.9
09:55 1016 30 846 24.98 4.2 39.5 47 -6.2 20.8
10:00 1016 30 846 24.98 4.3 39.7 49 -5.6 21.9
10:05 1016 30 846 24.98 4.3 39.7 48 -5.7 21.7
10:10 1016 30 846 24.98 4.3 39.8 48 -5.9 21.5
10:15 1016 30 846 24.98 4 39.2 50 -5.4 22.3
10:20 1016 30 846 24.98 4.4 39.8 46 -6.4 20.6
10:25 1016 30 846 24.98 4.6 40.3 47 -5.8 21.6
10:30 1016 30 845 24.95 4.7 40.5 47 -5.7 21.8
10:35 1016 30 845 24.95 5 40.9 44 -6.4 20.5
10:40 1016 30 845 24.95 5.4 41.8 45 -5.7 21.8
10:45 1016 30 845 24.95 5.6 42 45 -5.6 22
10:50 1016 30 845 24.95 5.8 42.4 41 -6.4 20.4
10:55 1016 30 845 24.95 6.3 43.3 41 -6 21.2
11:00 1016 30 845 24.95 6.4 43.6 42 -5.4 22.2
11:05 1016 30 845 24.95 6.4 43.5 41 -5.9 21.3
11:10 1016 30 845 24.95 6.4 43.4 43 -5.4 22.3
11:15 1016 30 845 24.95 6.4 43.5 39 -6.5 20.2
11:20 1016 30 845 24.95 6.5 43.8 39 -6.3 20.6
11:25 1016 30 845 24.95 6.8 44.2 41 -5.6 22
11:30 1016 30 845 24.95 6.7 44 41 -5.5 22
11:35 1016 30 845 24.95 6.4 43.6 44 -5 23
11:40 1016 30 845 24.95 6.1 43 42 -5.8 21.5
11:45 1016 30 845 24.95 6.1 43 38 -7 19.3
11:50 1015 29.97 845 24.95 6.7 44 36 -7.4 18.6
11:55 1015 29.97 845 24.95 6.9 44.4 35 -7.6 18.3
12:00 1015 29.97 845 24.95 7.1 44.8 34 -7.6 18.4
12:05 1015 29.97 844 24.92 7.2 45 33 -7.9 17.8
12:10 1015 29.97 844 24.92 7.1 44.8 37 -6.5 20.4
12:15 1015 29.97 844 24.92 6.9 44.5 33 -8.3 17
12:20 1015 29.97 844 24.92 7.5 45.5 36 -6.8 19.8
12:25 1015 29.97 844 24.92 7.4 45.2 35 -6.9 19.5
12:30 1015 29.97 844 24.92 6.7 44 44 -4.8 23.3
12:35 1015 29.97 844 24.92 6 42.9 42 -5.8 21.6
12:40 1015 29.97 844 24.92 6.6 43.9 44 -4.8 23.4
12:45 1015 29.97 844 24.92 6.5 43.7 46 -4.2 24.4
12:50 1015 29.97 844 24.92 6.8 44.3 32 -8.7 16.4
12:55 1014 29.94 844 24.92 9 48.2 32 -6.7 19.9
13:00 1015 29.97 844 24.92 8.3 46.9 41 -4.1 24.6
13:05 1014 29.94 844 24.92 7.1 44.9 45 -3.9 24.9
13:10 1014 29.94 844 24.92 6.2 43.1 46 -4.6 23.7
13:15 1014 29.94 844 24.92 6.4 43.4 40 -6.3 20.7
13:20 1014 29.94 843 24.89 7.6 45.6 40 -5.3 22.5
13:25 1014 29.94 843 24.89 7.4 45.3 42 -4.6 23.7
13:30 1014 29.94 843 24.89 7.6 45.7 40 -5.2 22.6
13:35 1014 29.94 843 24.89 7.7 45.9 41 -4.6 23.7
13:40 1014 29.94 843 24.89 7.3 45.1 43 -4.4 24.1
13:45 1014 29.94 843 24.89 7.4 45.3 43 -4.2 24.4
13:50 1014 29.94 843 24.89 7.7 45.9 38 -5.7 21.7
13:55 1014 29.94 843 24.89 8.2 46.7 42 -4 24.8
14:00 1014 29.94 843 24.89 8.1 46.6 39 -5.1 22.8
14:05 1014 29.94 843 24.89 8 46.4 46 -2.8 27
14:10 1014 29.94 843 24.89 7.5 45.5 44 -3.9 25
14:15 1014 29.94 843 24.89 7.3 45.1 45 -3.7 25.3
14:20 1014 29.94 843 24.89 7.5 45.5 40 -5.2 22.6
14:25 1014 29.94 843 24.89 7.6 45.7 35 -6.8 19.7
14:30 1014 29.94 843 24.89 8.9 48.1 32 -7 19.5
14:35 1014 29.94 843 24.89 8.8 47.8 41 -3.6 25.4
14:40 1013 29.91 843 24.89 7.8 46.1 44 -3.7 25.4
14:45 1013 29.91 843 24.89 7.7 45.8 42 -4.4 24.1
14:50 1013 29.91 843 24.89 8.1 46.6 37 -5.6 22
14:55 1013 29.91 842 24.86 8.9 47.9 30 -7.6 18.3
15:00 1013 29.91 842 24.86 12.1 53.8 32 -4 24.8
15:05 1013 29.91 842 24.86 9.9 49.9 39 -3.4 25.8
15:10 1013 29.91 842 24.86 8.8 47.8 37 -5.1 22.9
15:15 1013 29.91 842 24.86 9.1 48.5 35 -5.4 22.3
15:20 1013 29.91 842 24.86 9.6 49.2 38 -4.2 24.5
15:25 1013 29.91 842 24.86 9.9 49.9 32 -5.8 21.5
15:30 1013 29.91 842 24.86 10.2 50.3 34 -4.9 23.3
15:35 1013 29.91 842 24.86 9.8 49.7 34 -5.2 22.6
15:40 1013 29.91 842 24.86 10.2 50.4 33 -5.5 22.2
15:45 1013 29.91 842 24.86 11.2 52.2 27 -7.1 19.2
15:50 1013 29.91 842 24.86 11.6 52.9 32 -4.5 23.9
15:55 1013 29.91 842 24.86 10.4 50.6 29 -6.8 19.8
16:00 1013 29.91 842 24.86 11 51.8 31 -5.3 22.4
16:05 1013 29.91 842 24.86 10.6 51.2 33 -5 23
16:10 1013 29.91 842 24.86 10 50.1 33 -5.6 21.9
16:15 1013 29.91 842 24.86 10.4 50.7 33 -5 23
16:20 1013 29.91 842 24.86 10.2 50.4 32 -5.7 21.8
16:25 1013 29.91 842 24.86 9.9 49.8 35 -4.9 23.2
16:30 1013 29.91 842 24.86 9.4 48.9 33 -6 21.2
16:35 1013 29.91 842 24.86 9.6 49.3 31 -6.6 20.1
16:40 1013 29.91 842 24.86 9.8 49.6 35 -4.8 23.3
16:45 1013 29.91 842 24.86 9.3 48.8 35 -5.3 22.4
16:50 1013 29.91 842 24.86 9.1 48.3 34 -6.1 21
16:55 1013 29.91 842 24.86 9.3 48.7 33 -6.2 20.8
17:00 1013 29.91 842 24.86 9.4 48.9 33 -6.2 20.8
17:05 1013 29.91 842 24.86 9.4 48.9 30 -7.1 19.2
17:10 1013 29.91 842 24.86 9.4 48.9 32 -6.5 20.4
17:15 1013 29.91 842 24.86 9.2 48.5 32 -6.7 20
17:20 1013 29.91 842 24.86 9 48.3 34 -5.8 21.5
17:25 1012 29.88 842 24.86 8.6 47.5 33 -6.7 20
17:30 1012 29.88 842 24.86 9.3 48.8 29 -8 17.6
17:35 1012 29.88 842 24.86 9.9 49.8 29 -7.3 18.9
17:40 1012 29.88 842 24.86 9.3 48.7 30 -7.3 18.9
17:45 1012 29.88 842 24.86 9.4 48.9 30 -7.4 18.8
17:50 1012 29.88 841 24.83 9.1 48.4 28 -8.6 16.5
17:55 1012 29.88 841 24.83 10.1 50.2 27 -7.8 18
18:00 1012 29.88 841 24.83 9.3 48.8 30 -7.2 19
18:05 1012 29.88 841 24.83 9.7 49.5 24 -10 13.9
18:10 1012 29.88 841 24.83 10.5 50.9 27 -7.6 18.3
18:15 1012 29.88 841 24.83 10.3 50.5 23 -9.8 14.4
18:20 1012 29.88 841 24.83 10.8 51.5 23 -9.5 14.9
18:25 1012 29.88 841 24.83 10.8 51.5 24 -8.9 16
18:30 1012 29.88 841 24.83 10.2 50.4 23 -9.8 14.4
18:35 1012 29.88 841 24.83 10.6 51 27 -7.7 18.2
18:40 1012 29.88 841 24.83 10.7 51.2 23 -9.6 14.7
18:45 1012 29.88 841 24.83 10.6 51.1 26 -8.3 17
18:50 1012 29.88 841 24.83 10 50 26 -8.4 16.8
18:55 1012 29.88 841 24.83 9.1 48.4 30 -7.6 18.3
19:00 1012 29.88 841 24.83 8.9 48 25 -10 14
19:05 1012 29.88 841 24.83 9.3 48.8 32 -6.7 20
19:10 1012 29.88 841 24.83 8.7 47.6 30 -7.9 17.8
19:15 1012 29.88 841 24.83 9.2 48.5 28 -8.5 16.8
19:20 1012 29.88 841 24.83 9.2 48.6 28 -8.2 17.3
19:25 1012 29.88 841 24.83 8.2 46.7 30 -8.5 16.7
19:30 1012 29.88 841 24.83 8.7 47.7 28 -8.9 16
19:35 1012 29.88 841 24.83 9.1 48.3 28 -8.3 17.1
19:40 1012 29.88 841 24.83 8.9 48 27 -9.2 15.5
19:45 1012 29.88 841 24.83 9.5 49 29 -7.9 17.8
19:50 1012 29.88 841 24.83 9.4 48.9 26 -9.4 15.1
19:55 1012 29.88 841 24.83 9.5 49.1 25 -9.8 14.4
20:00 1012 29.88 841 24.83 9.9 49.8 24 -9.9 14.3
20:05 1012 29.88 841 24.83 10.1 50.2 25 -9.1 15.6
20:10 1012 29.88 841 24.83 9.5 49 30 -7 19.3
20:15 1012 29.88 841 24.83 7.9 46.2 28 -9.3 15.2
20:20 1012 29.88 841 24.83 8.2 46.8 27 -9.8 14.3
20:25 1012 29.88 841 24.83 8.7 47.6 26 -10 13.9
20:30 1012 29.88 841 24.83 9.7 49.5 23 -10.4 13.2
20:35 1012 29.88 841 24.83 9.3 48.7 26 -9.4 15.2
20:40 1012 29.88 841 24.83 9 48.2 26 -9.6 14.7
20:45 1012 29.88 841 24.83 8.9 48.1 30 -7.8 17.9
20:50 1012 29.88 841 24.83 8.3 46.9 29 -8.8 16.1
20:55 1012 29.88 841 24.83 7.6 45.6 30 -8.9 16
21:00 1012 29.88 841 24.83 7.6 45.6 29 -9.3 15.3
21:05 1012 29.88 841 24.83 8 46.3 28 -9.6 14.8
21:10 1012 29.88 841 24.83 8.1 46.5 30 -8.3 17
21:15 1012 29.88 841 24.83 7.3 45.2 29 -9.4 15
21:20 1012 29.88 841 24.83 7.6 45.6 29 -9.6 14.8
21:25 1012 29.88 841 24.83 7.8 46 30 -8.9 15.9
21:30 1012 29.88 841 24.83 8.7 47.6 27 -9.4 15.1
21:35 1012 29.88 841 24.83 8.1 46.6 29 -8.7 16.4
21:40 1012 29.88 841 24.83 6.8 44.3 34 -7.9 17.9
21:45 1012 29.88 841 24.83 6.1 43 30 -10.2 13.6
21:50 1012 29.88 841 24.83 6.9 44.4 33 -8.5 16.7
21:55 1012 29.88 841 24.83 6.2 43.1 34 -8.7 16.4
22:00 1012 29.88 841 24.83 6.3 43.4 36 -7.7 18.1
22:05 1012 29.88 841 24.83 5.8 42.5 34 -8.8 16.1
22:10 1012 29.88 841 24.83 6.3 43.3 33 -8.9 16
22:15 1012 29.88 841 24.83 6.7 44.1 30 -9.7 14.6
22:20 1012 29.88 841 24.83 7 44.6 32 -8.7 16.3
22:25 1012 29.88 841 24.83 6.8 44.2 31 -9.3 15.3
22:30 1012 29.88 841 24.83 6.9 44.4 33 -8.3 17
22:35 1012 29.88 841 24.83 6.6 43.8 32 -8.9 15.9
22:40 1012 29.88 841 24.83 6.7 44.1 33 -8.4 16.8
22:45 1012 29.88 841 24.83 6.5 43.6 33 -8.7 16.4
22:50 1012 29.88 841 24.83 6.3 43.3 34 -8.4 16.8
22:55 1012 29.88 841 24.83 5.9 42.6 34 -8.7 16.3
23:00 1012 29.88 841 24.83 5.8 42.4 36 -8.2 17.2
23:05 1012 29.88 841 24.83 5.4 41.7 38 -7.9 17.8
23:10 1012 29.88 841 24.83 5.2 41.3 37 -8.4 16.8
23:15 1012 29.88 841 24.83 5.2 41.3 37 -8.3 17
23:20 1012 29.88 841 24.83 5.3 41.5 38 -7.9 17.7
23:25 1012 29.88 841 24.83 5.1 41.3 37 -8.4 17
23:30 1012 29.88 841 24.83 5.4 41.7 38 -7.9 17.7
23:35 1012 29.88 841 24.83 5.1 41.2 39 -7.8 18
23:40 1012 29.88 841 24.83 4.8 40.7 40 -7.7 18.2
23:45 1012 29.88 841 24.83 4.8 40.6 38 -8.4 16.8
23:50 1012 29.88 841 24.83 4.6 40.3 39 -8.3 17.1
23:55 1012 29.88 841 24.83 4.6 40.2 38 -8.6 16.4
24:00 1012 29.88 841 24.83 5.2 41.3 34 -9.3 15.2